Chartley, Massachusetts
Current Conditions -  °F | °C
As of 8:52 PM on Saturday 25 Oct 2014 (Local Time) from KTAN Reporting Station
Overcast Overcast  
Wind Chill: 56°   Ceiling: 10000
Heat Index: 56°   Visibility: 10mi
Dew Point: 46°   Wind: 3mph
Humidity: 69%   Direction: 220°SW
Pressure: 29.59"   Gusts: NA
Location:  41.95°N, 71.23°W
Report Text: KTAN 260052Z AUTO 22003KT 10SM SCT080 OVC100 13/08 A2959 RMK AO2 SLP020 T01330078
Loading
Personal Weather Stations






























Interactive Weather Map
Tropical Storm Tracking
New forecast layout! Learn more

10-Day Weather Forecast

Advertisements
Track Severe Weather on mobile